createdAt,value
2023-03-29T00:02:05.318Z,4.05
2023-03-29T00:05:07.725Z,4.04
2023-03-29T00:08:09.132Z,4.05
2023-03-29T00:11:10.553Z,4.04
2023-03-29T00:14:12.824Z,4.04
2023-03-29T00:17:14.273Z,4.05
2023-03-29T00:20:15.918Z,4.05
2023-03-29T00:23:17.337Z,4.06
2023-03-29T00:26:18.784Z,4.05
2023-03-29T00:29:20.198Z,4.04
2023-03-29T00:32:21.949Z,3.98
2023-03-29T00:35:23.409Z,3.93
2023-03-29T00:38:25.278Z,3.89
2023-03-29T00:41:26.686Z,3.84
2023-03-29T00:44:55.278Z,3.79
2023-03-29T00:47:58.657Z,3.80
2023-03-29T00:51:03.726Z,3.63
2023-03-29T00:54:08.587Z,3.69
2023-03-29T00:57:13.170Z,3.70
2023-03-29T01:00:17.924Z,3.67
2023-03-29T01:03:21.818Z,3.65
2023-03-29T01:06:27.442Z,3.62
2023-03-29T01:09:33.798Z,3.55
2023-03-29T01:12:41.352Z,3.52
2023-03-29T01:15:46.253Z,3.47
2023-03-29T01:18:48.438Z,3.45
2023-03-29T01:22:04.590Z,3.37
2023-03-29T01:25:47.651Z,3.31
2023-03-29T01:28:59.011Z,3.29
2023-03-29T01:32:07.269Z,3.31
2023-03-29T01:35:35.737Z,3.27
2023-03-29T01:38:50.800Z,3.24
2023-03-29T01:42:07.444Z,3.19
2023-03-29T01:45:09.173Z,3.12
2023-03-29T01:48:14.415Z,3.06
2023-03-29T01:51:26.165Z,3.00
2023-03-29T01:54:47.382Z,2.96
2023-03-29T01:57:51.576Z,2.92
2023-03-29T02:00:53.911Z,2.88
2023-03-29T02:04:01.952Z,2.84
2023-03-29T02:07:09.134Z,2.83
2023-03-29T02:10:12.098Z,2.82
2023-03-29T02:13:13.814Z,2.76
2023-03-29T02:16:15.575Z,2.78
2023-03-29T02:19:18.317Z,2.77
2023-03-29T02:22:27.048Z,2.74
2023-03-29T02:25:29.183Z,2.68
2023-03-29T02:28:31.186Z,2.67
2023-03-29T02:31:40.917Z,2.62
2023-03-29T02:34:57.764Z,2.60
2023-03-29T02:38:01.032Z,2.53
2023-03-29T02:41:03.536Z,2.50
2023-03-29T02:44:07.496Z,2.45
2023-03-29T02:47:18.161Z,2.42
2023-03-29T02:50:20.631Z,2.32
2023-03-29T02:53:28.543Z,2.27
2023-03-29T02:56:30.454Z,2.25
2023-03-29T02:59:32.720Z,2.21
2023-03-29T03:02:34.328Z,2.18
2023-03-29T03:05:36.840Z,2.11
2023-03-29T03:08:38.531Z,2.07
2023-03-29T03:11:40.288Z,2.03
2023-03-29T03:14:41.813Z,1.99
2023-03-29T03:17:43.758Z,1.98
2023-03-29T03:20:55.032Z,1.99
2023-03-29T03:23:56.668Z,1.96
2023-03-29T03:26:58.897Z,1.95
2023-03-29T03:30:00.369Z,1.94
2023-03-29T03:33:34.023Z,1.92
2023-03-29T03:36:44.387Z,1.96
2023-03-29T03:39:46.955Z,1.92
2023-03-29T03:42:49.072Z,1.90
2023-03-29T03:45:51.041Z,1.86
2023-03-29T03:48:56.263Z,1.85
2023-03-29T03:52:04.064Z,1.85
2023-03-29T03:55:05.796Z,1.84
2023-03-29T03:58:26.465Z,1.87
2023-03-29T04:01:28.335Z,1.92
2023-03-29T04:04:38.944Z,1.93
2023-03-29T04:07:46.864Z,1.96
2023-03-29T04:10:56.074Z,2.02
2023-03-29T04:14:03.471Z,2.09
2023-03-29T04:17:36.156Z,2.08
2023-03-29T04:20:54.801Z,2.08
2023-03-29T04:23:58.108Z,1.92
2023-03-29T04:26:59.604Z,1.97
2023-03-29T04:30:01.021Z,2.03
2023-03-29T04:33:34.526Z,2.03
2023-03-29T04:36:36.289Z,2.09
2023-03-29T04:39:41.669Z,2.15
2023-03-29T04:42:43.604Z,2.17
2023-03-29T04:45:45.311Z,2.21
2023-03-29T04:48:55.212Z,2.21
2023-03-29T04:52:05.677Z,2.24
2023-03-29T04:55:07.963Z,2.25
2023-03-29T04:58:32.264Z,2.22
2023-03-29T05:01:35.038Z,2.26
2023-03-29T05:04:36.524Z,2.27
2023-03-29T05:07:44.344Z,2.29
2023-03-29T05:10:46.611Z,2.33
2023-03-29T05:13:49.407Z,2.40
2023-03-29T05:16:50.993Z,2.40
2023-03-29T05:19:53.031Z,2.40
2023-03-29T05:22:55.882Z,2.45
2023-03-29T05:26:21.348Z,2.51
2023-03-29T05:29:25.782Z,2.58
2023-03-29T05:32:36.614Z,2.64
2023-03-29T05:35:38.040Z,2.56
2023-03-29T05:38:42.751Z,2.66
2023-03-29T05:41:44.251Z,2.71
2023-03-29T05:44:58.041Z,2.76
2023-03-29T05:47:59.519Z,2.80
2023-03-29T05:51:01.546Z,2.84
2023-03-29T05:54:03.244Z,2.87
2023-03-29T05:57:04.972Z,2.92
2023-03-29T06:00:07.176Z,2.96
2023-03-29T06:03:21.308Z,2.96
2023-03-29T06:06:24.228Z,2.98
2023-03-29T06:09:26.058Z,3.02
2023-03-29T06:12:35.731Z,3.06
2023-03-29T06:15:38.179Z,3.11
2023-03-29T06:18:41.875Z,3.16
2023-03-29T06:21:43.300Z,3.24
2023-03-29T06:24:48.719Z,3.27
2023-03-29T06:27:57.882Z,3.29
2023-03-29T06:30:59.885Z,3.38
2023-03-29T06:34:02.052Z,3.41
2023-03-29T06:37:26.647Z,3.47
2023-03-29T06:40:39.456Z,3.56
2023-03-29T06:43:40.941Z,3.70
2023-03-29T06:46:48.470Z,3.83
2023-03-29T06:49:50.087Z,3.92
2023-03-29T06:53:12.793Z,4.02
2023-03-29T06:56:16.063Z,4.19
2023-03-29T06:59:19.898Z,4.24
2023-03-29T07:02:27.500Z,4.33
2023-03-29T07:05:32.346Z,4.34
2023-03-29T07:08:36.731Z,4.42
2023-03-29T07:11:43.454Z,4.45
2023-03-29T07:14:57.567Z,4.49
2023-03-29T07:18:08.887Z,4.54
2023-03-29T07:21:12.506Z,4.57
2023-03-29T07:24:14.708Z,4.62
2023-03-29T07:27:16.568Z,4.64
2023-03-29T07:30:24.850Z,4.73
2023-03-29T07:33:27.784Z,4.74
2023-03-29T07:36:32.212Z,4.81
2023-03-29T07:39:33.712Z,4.89
2023-03-29T07:42:58.196Z,4.90
2023-03-29T07:46:03.546Z,4.94
2023-03-29T07:49:07.043Z,4.93
2023-03-29T07:52:08.840Z,5.01
2023-03-29T07:55:12.515Z,5.03
2023-03-29T07:58:29.884Z,5.12
2023-03-29T08:01:31.944Z,5.17
2023-03-29T08:04:50.903Z,5.39
2023-03-29T08:07:52.347Z,5.58
2023-03-29T08:11:02.095Z,5.52
2023-03-29T08:14:12.194Z,5.46
2023-03-29T08:17:32.814Z,5.54
2023-03-29T08:20:34.409Z,5.50
2023-03-29T08:23:38.599Z,5.55
2023-03-29T08:26:46.541Z,5.60
2023-03-29T08:29:50.346Z,5.61
2023-03-29T08:32:54.456Z,5.71
2023-03-29T08:35:57.166Z,5.73
2023-03-29T08:39:02.598Z,5.83
2023-03-29T08:42:10.728Z,5.86
2023-03-29T08:45:21.018Z,5.97
2023-03-29T08:48:38.606Z,6.03
2023-03-29T08:51:51.324Z,6.14
2023-03-29T08:54:57.059Z,6.21
2023-03-29T08:58:24.179Z,6.25
2023-03-29T09:01:32.820Z,6.27
2023-03-29T09:04:36.181Z,6.30
2023-03-29T09:07:47.857Z,6.33
2023-03-29T09:11:11.260Z,6.40
2023-03-29T09:14:22.895Z,6.51
2023-03-29T09:17:33.614Z,6.73
2023-03-29T09:21:00.935Z,6.81
2023-03-29T09:24:21.331Z,7.05
2023-03-29T09:27:33.743Z,7.14
2023-03-29T09:30:52.496Z,7.24
2023-03-29T09:34:15.853Z,7.27
2023-03-29T09:37:38.398Z,7.22
2023-03-29T09:40:46.891Z,7.33
2023-03-29T09:43:56.541Z,7.32
2023-03-29T09:47:24.900Z,7.26
2023-03-29T09:50:36.131Z,7.19
2023-03-29T09:53:41.124Z,7.23
2023-03-29T09:57:05.499Z,7.26
2023-03-29T10:00:07.566Z,7.36
2023-03-29T10:03:20.524Z,7.70
2023-03-29T10:06:28.821Z,7.94
2023-03-29T10:09:35.830Z,8.06
2023-03-29T10:12:56.588Z,8.01
2023-03-29T10:16:05.023Z,8.13
2023-03-29T10:19:35.353Z,8.30
2023-03-29T10:22:37.976Z,8.34
2023-03-29T10:25:42.097Z,8.08
2023-03-29T10:28:44.393Z,7.96
2023-03-29T10:31:45.910Z,7.94
2023-03-29T10:34:47.504Z,7.99
2023-03-29T10:37:53.470Z,7.87
2023-03-29T10:41:03.427Z,7.83
2023-03-29T10:44:06.391Z,7.73
2023-03-29T10:47:18.313Z,7.93
2023-03-29T10:50:19.780Z,7.96
2023-03-29T10:53:24.199Z,8.01
2023-03-29T10:56:44.566Z,8.01
2023-03-29T10:59:56.400Z,7.95
2023-03-29T11:03:15.795Z,7.96
2023-03-29T11:06:37.109Z,7.90
2023-03-29T11:10:03.266Z,7.85
2023-03-29T11:13:10.539Z,7.95
2023-03-29T11:16:14.968Z,7.96
2023-03-29T11:19:19.289Z,7.97
2023-03-29T11:22:35.947Z,8.02
2023-03-29T11:26:13.640Z,8.08
2023-03-29T11:29:26.762Z,8.23
2023-03-29T11:32:48.468Z,8.16
2023-03-29T11:36:14.760Z,8.21
2023-03-29T11:39:37.619Z,8.28
2023-03-29T11:42:43.746Z,8.21
2023-03-29T11:46:01.452Z,8.28
2023-03-29T11:49:21.105Z,8.33
2023-03-29T11:52:29.979Z,8.50
2023-03-29T11:55:34.718Z,8.63
2023-03-29T11:58:41.723Z,8.79
2023-03-29T12:01:50.140Z,8.83
2023-03-29T12:04:56.045Z,8.77
2023-03-29T12:08:09.101Z,8.58
2023-03-29T12:11:26.280Z,8.54
2023-03-29T12:14:42.312Z,8.56
2023-03-29T12:17:51.458Z,8.57
2023-03-29T12:20:58.941Z,8.59
2023-03-29T12:24:01.286Z,8.63
2023-03-29T12:27:24.653Z,8.69
2023-03-29T12:30:38.853Z,8.78
2023-03-29T12:34:00.118Z,8.81
2023-03-29T12:37:35.527Z,8.91
2023-03-29T12:41:20.748Z,9.00
2023-03-29T12:44:32.971Z,8.96
2023-03-29T12:47:56.946Z,9.01
2023-03-29T12:51:01.673Z,9.07
2023-03-29T12:54:10.237Z,9.04
2023-03-29T12:57:28.323Z,9.11
2023-03-29T13:00:44.135Z,9.23
2023-03-29T13:03:45.497Z,9.23
2023-03-29T13:06:46.866Z,9.09
2023-03-29T13:09:55.534Z,9.18
2023-03-29T13:12:57.174Z,9.13
2023-03-29T13:16:29.519Z,9.21
2023-03-29T13:20:01.248Z,9.23
2023-03-29T13:23:24.637Z,9.18
2023-03-29T13:26:32.244Z,9.13
2023-03-29T13:29:52.136Z,9.15
2023-03-29T13:33:11.797Z,9.24
2023-03-29T13:36:34.399Z,9.15
2023-03-29T13:39:36.142Z,9.24
2023-03-29T13:42:40.196Z,9.29
2023-03-29T13:45:41.689Z,9.36
2023-03-29T13:48:43.073Z,9.47
2023-03-29T13:52:02.812Z,9.45
2023-03-29T13:55:14.101Z,9.60
2023-03-29T13:58:29.068Z,9.79
2023-03-29T14:01:51.564Z,9.81
2023-03-29T14:04:53.669Z,9.85
2023-03-29T14:07:55.659Z,9.61
2023-03-29T14:11:02.160Z,9.53
2023-03-29T14:14:06.733Z,9.52
2023-03-29T14:17:10.360Z,9.58
2023-03-29T14:20:15.300Z,9.56
2023-03-29T14:23:21.910Z,9.53
2023-03-29T14:26:24.816Z,9.67
2023-03-29T14:29:30.963Z,9.71
2023-03-29T14:32:32.449Z,9.82
2023-03-29T14:35:34.048Z,9.90
2023-03-29T14:38:36.304Z,10.03
2023-03-29T14:41:38.531Z,10.10
2023-03-29T14:44:40.144Z,10.05
2023-03-29T14:47:42.444Z,9.95
2023-03-29T14:50:46.135Z,10.10
2023-03-29T14:53:48.977Z,10.18
2023-03-29T14:56:51.433Z,10.22
2023-03-29T14:59:58.579Z,10.22
2023-03-29T15:03:02.359Z,10.13
2023-03-29T15:06:04.827Z,10.05
2023-03-29T15:09:07.806Z,10.01
2023-03-29T15:12:15.940Z,9.99
2023-03-29T15:15:17.911Z,10.02
2023-03-29T15:18:32.517Z,10.01
2023-03-29T15:21:35.449Z,10.01
2023-03-29T15:24:43.465Z,10.01
2023-03-29T15:27:48.646Z,9.97
2023-03-29T15:31:00.812Z,9.98
2023-03-29T15:34:12.456Z,10.02
2023-03-29T15:37:13.982Z,10.03
2023-03-29T15:40:16.621Z,10.01
2023-03-29T15:43:18.179Z,10.06
2023-03-29T15:46:19.615Z,10.05
2023-03-29T15:49:21.353Z,10.04
2023-03-29T15:52:22.811Z,10.09
2023-03-29T15:55:24.305Z,10.13
2023-03-29T15:58:28.785Z,10.09
2023-03-29T16:01:34.856Z,10.07
2023-03-29T16:04:36.329Z,10.03
2023-03-29T16:07:37.757Z,10.05
2023-03-29T16:10:40.827Z,10.04
2023-03-29T16:13:42.300Z,9.99
2023-03-29T16:16:43.779Z,9.97
2023-03-29T16:19:45.218Z,9.93
2023-03-29T16:22:47.703Z,9.89
2023-03-29T16:25:49.134Z,9.87
2023-03-29T16:28:50.517Z,9.83
2023-03-29T16:31:53.169Z,9.80
2023-03-29T16:34:55.917Z,9.81
2023-03-29T16:37:57.321Z,9.77
2023-03-29T16:40:58.734Z,9.76
2023-03-29T16:44:00.149Z,9.74
2023-03-29T16:47:01.564Z,9.73
2023-03-29T16:50:03.035Z,9.71
2023-03-29T16:53:04.492Z,9.71
2023-03-29T16:56:06.458Z,9.73
2023-03-29T16:59:07.927Z,9.74
2023-03-29T17:02:09.988Z,9.74
2023-03-29T17:05:12.441Z,9.73
2023-03-29T17:08:14.040Z,9.71
2023-03-29T17:11:15.485Z,9.72
2023-03-29T17:14:16.961Z,9.70
2023-03-29T17:17:18.976Z,9.71
2023-03-29T17:20:20.395Z,9.70
2023-03-29T17:23:22.143Z,9.67
2023-03-29T17:26:23.669Z,9.66
2023-03-29T17:29:25.077Z,9.65
2023-03-29T17:32:26.515Z,9.65
2023-03-29T17:35:28.077Z,9.63
2023-03-29T17:38:29.536Z,9.60
2023-03-29T17:41:31.343Z,9.58
2023-03-29T17:44:33.163Z,9.57
2023-03-29T17:47:34.655Z,9.55
2023-03-29T17:50:36.405Z,9.52
2023-03-29T17:53:37.836Z,9.47
2023-03-29T17:56:39.259Z,9.43
2023-03-29T17:59:40.685Z,9.41
2023-03-29T18:02:43.029Z,9.37
2023-03-29T18:05:44.495Z,9.32
2023-03-29T18:08:46.662Z,9.27
2023-03-29T18:11:48.126Z,9.24
2023-03-29T18:14:49.658Z,9.18
2023-03-29T18:17:51.093Z,9.15
2023-03-29T18:20:53.210Z,9.11
2023-03-29T18:23:56.603Z,9.08
2023-03-29T18:26:58.443Z,9.06
2023-03-29T18:29:59.874Z,9.02
2023-03-29T18:33:01.634Z,8.97
2023-03-29T18:36:10.753Z,8.96
2023-03-29T18:39:14.277Z,8.93
2023-03-29T18:42:15.721Z,8.92
2023-03-29T18:45:17.922Z,8.92
2023-03-29T18:48:19.318Z,8.90
2023-03-29T18:51:20.732Z,8.87
2023-03-29T18:54:22.237Z,8.84
2023-03-29T18:57:23.868Z,8.83
2023-03-29T19:00:25.325Z,8.79
2023-03-29T19:03:26.837Z,8.78
2023-03-29T19:06:28.367Z,8.75
2023-03-29T19:09:29.881Z,8.73
2023-03-29T19:12:31.533Z,8.72
2023-03-29T19:15:33.122Z,8.70
2023-03-29T19:18:34.898Z,8.66
2023-03-29T19:21:36.280Z,8.66
2023-03-29T19:24:37.723Z,8.65
2023-03-29T19:27:39.508Z,8.64
2023-03-29T19:30:40.940Z,8.62
2023-03-29T19:33:42.403Z,8.62
2023-03-29T19:36:43.801Z,8.60
2023-03-29T19:39:45.230Z,8.58
2023-03-29T19:42:46.651Z,8.55
2023-03-29T19:45:50.151Z,8.54
2023-03-29T19:48:51.555Z,8.52
2023-03-29T19:51:52.947Z,8.50
2023-03-29T19:54:55.296Z,8.51
2023-03-29T19:57:56.665Z,8.46
2023-03-29T20:00:58.070Z,8.46
2023-03-29T20:03:59.604Z,8.45
2023-03-29T20:07:01.036Z,8.44
2023-03-29T20:10:02.618Z,8.43
2023-03-29T20:13:04.295Z,8.40
2023-03-29T20:16:16.327Z,8.36
2023-03-29T20:19:18.735Z,8.35
2023-03-29T20:22:20.181Z,8.32
2023-03-29T20:25:21.587Z,8.33
2023-03-29T20:28:23.166Z,8.33
2023-03-29T20:31:24.648Z,8.30
2023-03-29T20:34:26.244Z,8.32
2023-03-29T20:37:27.763Z,8.28
2023-03-29T20:40:29.414Z,8.29
2023-03-29T20:43:31.498Z,8.25
2023-03-29T20:46:33.111Z,8.26
2023-03-29T20:49:36.411Z,8.26
2023-03-29T20:52:37.902Z,8.26
2023-03-29T20:55:39.325Z,8.28
2023-03-29T20:58:40.916Z,8.27
2023-03-29T21:01:42.494Z,8.27
2023-03-29T21:04:44.649Z,8.26
2023-03-29T21:07:46.505Z,8.27
2023-03-29T21:10:47.941Z,8.27
2023-03-29T21:13:49.372Z,8.26
2023-03-29T21:16:50.913Z,8.26
2023-03-29T21:19:52.327Z,8.26
2023-03-29T21:22:53.713Z,8.24
2023-03-29T21:25:55.647Z,8.23
2023-03-29T21:28:57.067Z,8.18
2023-03-29T21:31:58.575Z,8.15
2023-03-29T21:35:00.224Z,8.16
2023-03-29T21:38:01.657Z,8.17
2023-03-29T21:41:03.610Z,8.14
2023-03-29T21:44:05.238Z,8.11
2023-03-29T21:47:06.709Z,8.08
2023-03-29T21:50:08.372Z,8.04
2023-03-29T21:53:10.064Z,8.06
2023-03-29T21:56:11.454Z,8.05
2023-03-29T21:59:13.083Z,8.04
2023-03-29T22:02:15.439Z,8.02
2023-03-29T22:05:16.941Z,7.99
2023-03-29T22:08:18.344Z,8.00
2023-03-29T22:11:20.443Z,7.97
2023-03-29T22:14:21.915Z,7.96
2023-03-29T22:17:23.382Z,7.96
2023-03-29T22:20:24.835Z,7.94
2023-03-29T22:23:26.230Z,7.94
2023-03-29T22:26:30.084Z,7.93
2023-03-29T22:29:31.487Z,7.92
2023-03-29T22:32:32.978Z,7.93
2023-03-29T22:35:35.620Z,7.91
2023-03-29T22:38:37.212Z,7.92
2023-03-29T22:41:38.734Z,7.95
2023-03-29T22:44:40.313Z,7.93
2023-03-29T22:47:42.016Z,7.92
2023-03-29T22:50:46.230Z,7.94
2023-03-29T22:53:47.990Z,7.92
2023-03-29T22:56:49.477Z,7.90
2023-03-29T22:59:51.004Z,7.91
2023-03-29T23:02:52.424Z,7.94
2023-03-29T23:05:56.607Z,7.94
2023-03-29T23:08:58.065Z,7.94
2023-03-29T23:11:59.540Z,7.95
2023-03-29T23:15:00.949Z,7.96
2023-03-29T23:18:02.573Z,7.98
2023-03-29T23:21:04.224Z,8.00
2023-03-29T23:24:06.132Z,7.98
2023-03-29T23:27:07.567Z,7.98
2023-03-29T23:30:09.345Z,7.97
2023-03-29T23:33:10.749Z,7.95
2023-03-29T23:36:15.050Z,7.98
2023-03-29T23:39:16.465Z,7.98
2023-03-29T23:42:17.885Z,7.98
2023-03-29T23:45:19.458Z,8.00
2023-03-29T23:48:20.858Z,8.01
2023-03-29T23:51:22.303Z,8.04
2023-03-29T23:54:23.766Z,8.04
2023-03-29T23:57:25.504Z,8.06
